Time;durP1;ratioP1;P1;durP2;ratioP2;P2;SDS_P1;SDS_P2;PMS_P1;PMS_P2;Temp;Humidity;BMP_temperature;BMP_pressure;BME280_temperature;BME280_humidity;BME280_pressure;Samples;Min_cycle;Max_cycle;Signal;HPM_P1;HPM_P2
2024/02/28 00:01:50;;;;;;;86.25;40.35;;;;;;;0.95;100.00;101454.56;5014003;28;20201;-78
2024/02/28 00:04:18;;;;;;;96.65;40.25;;;;;;;0.93;100.00;101451.16;5012918;28;20053;-78
2024/02/28 00:06:46;;;;;;;92.47;40.42;;;;;;;0.92;100.00;101452.91;5013124;28;20140;-78
2024/02/28 00:09:13;;;;;;;93.78;39.75;;;;;;;0.83;100.00;101452.38;5013170;28;20054;-78
2024/02/28 00:11:43;;;;;;;94.72;41.95;;;;;;;0.86;100.00;101463.56;5013166;28;20137;-78
2024/02/28 00:14:10;;;;;;;94.68;41.33;;;;;;;0.83;100.00;101463.66;5012550;28;20619;-78
2024/02/28 00:16:37;;;;;;;87.50;40.38;;;;;;;0.84;100.00;101469.72;5013066;28;20420;-78
2024/02/28 00:19:03;;;;;;;93.90;41.35;;;;;;;0.79;100.00;101469.88;5013351;28;20129;-78
2024/02/28 00:21:31;;;;;;;97.93;41.72;;;;;;;0.78;100.00;101465.56;5011837;28;20060;-77
2024/02/28 00:23:58;;;;;;;113.28;44.55;;;;;;;0.88;100.00;101473.91;5005509;28;20079;-77
2024/02/28 00:26:24;;;;;;;118.68;44.90;;;;;;;1.00;100.00;101476.13;5011166;28;20133;-77
2024/02/28 00:28:51;;;;;;;113.03;46.95;;;;;;;1.03;100.00;101481.22;5011189;28;20483;-77
2024/02/28 00:31:18;;;;;;;118.47;46.35;;;;;;;1.05;100.00;101478.56;5011046;28;20148;-76
2024/02/28 00:33:44;;;;;;;117.78;48.63;;;;;;;1.12;100.00;101478.31;5000583;28;20061;-77
2024/02/28 00:36:11;;;;;;;111.75;46.83;;;;;;;1.06;100.00;101464.63;5014511;28;20054;-76
2024/02/28 00:38:39;;;;;;;107.53;47.10;;;;;;;1.12;100.00;101467.03;5014670;28;20077;-77
2024/02/28 00:41:06;;;;;;;122.22;48.70;;;;;;;1.22;100.00;101478.84;5015604;28;20149;-78
2024/02/28 00:43:32;;;;;;;113.50;48.00;;;;;;;1.11;100.00;101486.16;5012025;28;20274;-77
2024/02/28 00:45:59;;;;;;;107.85;47.13;;;;;;;0.99;100.00;101480.47;5013566;28;20082;-79
2024/02/28 00:48:26;;;;;;;123.22;49.97;;;;;;;1.14;100.00;101484.31;5019769;28;20483;-79
2024/02/28 00:50:53;;;;;;;121.72;51.67;;;;;;;1.22;100.00;101473.63;5015862;28;20065;-77
2024/02/28 00:53:20;;;;;;;120.65;50.25;;;;;;;1.20;100.00;101468.44;5015227;28;20060;-78
2024/02/28 00:55:48;;;;;;;133.55;52.65;;;;;;;1.16;100.00;101468.59;5017257;28;20096;-78
2024/02/28 00:58:16;;;;;;;133.63;54.40;;;;;;;1.16;100.00;101468.59;5015841;28;20107;-78
2024/02/28 01:00:42;;;;;;;120.45;51.47;;;;;;;1.05;100.00;101470.75;5017328;28;20077;-78
2024/02/28 01:03:10;;;;;;;133.10;53.92;;;;;;;1.12;100.00;101470.50;5018683;28;20130;-79
2024/02/28 01:05:38;;;;;;;138.95;55.38;;;;;;;1.13;100.00;101471.34;5019514;28;20046;-79
2024/02/28 01:08:05;;;;;;;143.75;56.85;;;;;;;1.00;100.00;101466.53;5015647;28;20077;-77
2024/02/28 01:10:32;;;;;;;135.35;55.63;;;;;;;0.97;100.00;101471.84;5014696;28;20046;-78
2024/02/28 01:13:00;;;;;;;130.27;54.10;;;;;;;1.04;100.00;101466.44;5014907;28;20141;-78
2024/02/28 01:15:25;;;;;;;127.68;51.67;;;;;;;0.96;100.00;101461.47;5007746;28;20057;-78
2024/02/28 01:17:52;;;;;;;132.63;50.95;;;;;;;0.85;100.00;101461.84;5013410;28;20045;-77
2024/02/28 01:20:18;;;;;;;128.40;52.97;;;;;;;0.83;100.00;101461.03;5014683;28;20081;-77
2024/02/28 01:22:45;;;;;;;132.23;52.22;;;;;;;0.73;100.00;101457.06;5005860;28;20137;-78
2024/02/28 01:25:12;;;;;;;125.68;50.03;;;;;;;0.59;100.00;101459.28;5015362;28;20085;-77
2024/02/28 01:27:39;;;;;;;150.55;54.17;;;;;;;0.57;100.00;101463.66;5014551;28;20089;-78
2024/02/28 01:30:08;;;;;;;128.60;51.80;;;;;;;0.57;100.00;101461.91;5014067;28;20383;-77
2024/02/28 01:32:35;;;;;;;137.20;51.92;;;;;;;0.57;100.00;101463.66;5005790;28;20054;-77
2024/02/28 01:35:04;;;;;;;127.55;51.70;;;;;;;0.44;100.00;101466.66;5015710;28;20145;-80
2024/02/28 01:37:30;;;;;;;133.27;50.42;;;;;;;0.39;100.00;101473.75;5016086;28;20053;-78
2024/02/28 01:39:57;;;;;;;134.43;51.35;;;;;;;0.45;100.00;101475.34;5012142;28;20132;-77
2024/02/28 01:42:24;;;;;;;137.15;51.47;;;;;;;0.44;100.00;101477.06;5016341;28;20132;-78
2024/02/28 01:44:51;;;;;;;133.32;51.85;;;;;;;0.48;100.00;101473.47;5018704;28;20421;-79
2024/02/28 01:47:20;;;;;;;120.18;49.00;;;;;;;0.50;100.00;101482.09;5012168;28;20569;-78
2024/02/28 01:49:48;;;;;;;129.57;49.97;;;;;;;0.48;100.00;101476.06;5016488;28;20041;-78
2024/02/28 01:52:15;;;;;;;132.50;50.72;;;;;;;0.46;100.00;101475.28;5017480;28;20058;-78
2024/02/28 01:54:42;;;;;;;137.30;51.33;;;;;;;0.55;100.00;101481.09;5016269;28;20054;-78
2024/02/28 01:57:09;;;;;;;126.50;49.85;;;;;;;0.63;100.00;101476.50;5012196;28;20088;-78
2024/02/28 01:59:37;;;;;;;136.43;50.35;;;;;;;0.67;100.00;101481.56;5016655;28;20080;-79
2024/02/28 02:02:04;;;;;;;123.07;47.90;;;;;;;0.70;100.00;101475.38;5007390;28;20054;-78
2024/02/28 02:04:32;;;;;;;127.88;49.50;;;;;;;0.74;100.00;101474.38;5014417;28;20056;-79
2024/02/28 02:06:59;;;;;;;121.78;48.22;;;;;;;0.78;100.00;101469.91;5013912;28;20081;-78
2024/02/28 02:09:26;;;;;;;134.70;49.67;;;;;;;0.76;100.00;101464.78;5013635;28;20500;-77
2024/02/28 02:11:53;;;;;;;127.35;48.45;;;;;;;0.70;100.00;101470.16;5013884;28;20046;-76
2024/02/28 02:14:20;;;;;;;127.05;49.00;;;;;;;0.77;100.00;101473.44;5014711;28;20050;-79
2024/02/28 02:16:47;;;;;;;125.78;48.95;;;;;;;0.84;100.00;101470.56;5013847;28;20128;-78
2024/02/28 02:19:14;;;;;;;136.30;53.00;;;;;;;0.92;100.00;101470.31;5014416;28;20254;-77
2024/02/28 02:21:50;;;;;;;131.30;50.72;;;;;;;0.97;100.00;101476.22;5017733;28;20060;-78
2024/02/28 02:24:18;;;;;;;127.30;51.03;;;;;;;1.08;100.00;101473.25;5008840;28;20046;-80
2024/02/28 02:26:46;;;;;;;127.18;48.83;;;;;;;1.09;100.00;101470.59;5015464;28;20053;-78
2024/02/28 02:29:13;;;;;;;126.05;50.35;;;;;;;1.22;100.00;101460.59;5015339;28;20046;-79
2024/02/28 02:31:40;;;;;;;121.53;49.95;;;;;;;1.25;100.00;101461.34;5014894;28;20077;-78
2024/02/28 02:34:07;;;;;;;131.82;51.38;;;;;;;1.32;100.00;101461.09;5013389;28;20472;-77
2024/02/28 02:36:33;;;;;;;128.70;50.58;;;;;;;1.39;100.00;101460.84;5014645;28;20076;-78
2024/02/28 02:39:00;;;;;;;125.00;52.13;;;;;;;1.46;100.00;101451.03;5005719;28;20077;-77
2024/02/28 02:41:28;;;;;;;127.03;52.38;;;;;;;1.39;100.00;101460.84;5005145;28;20475;-77
2024/02/28 02:43:55;;;;;;;121.45;50.95;;;;;;;1.42;100.00;101459.84;5013683;28;20136;-79
2024/02/28 02:46:21;;;;;;;129.27;52.28;;;;;;;1.40;100.00;101462.53;5013872;28;20132;-77
2024/02/28 02:48:48;;;;;;;138.38;53.75;;;;;;;1.44;100.00;101458.91;5013061;28;20505;-77
2024/02/28 02:51:14;;;;;;;131.43;50.70;;;;;;;1.46;100.00;101464.06;5006697;28;20064;-78
2024/02/28 02:53:41;;;;;;;135.95;52.55;;;;;;;1.46;100.00;101474.50;5005120;28;20561;-77
2024/02/28 02:56:08;;;;;;;124.18;50.00;;;;;;;1.45;100.00;101478.88;5006377;28;20060;-78
2024/02/28 02:58:36;;;;;;;129.50;50.38;;;;;;;1.52;100.00;101488.19;5013459;28;20052;-77
2024/02/28 03:01:03;;;;;;;130.75;52.38;;;;;;;1.49;100.00;101490.88;5005722;28;20151;-77
2024/02/28 03:03:30;;;;;;;127.57;53.17;;;;;;;1.58;100.00;101484.50;5014565;28;20073;-80
2024/02/28 03:05:57;;;;;;;129.65;50.75;;;;;;;1.63;100.00;101486.94;5013024;28;20116;-78
2024/02/28 03:08:24;;;;;;;121.43;51.78;;;;;;;1.67;100.00;101484.16;5010120;28;20132;-77
2024/02/28 03:10:50;;;;;;;132.90;50.72;;;;;;;1.56;100.00;101482.84;5012841;28;20056;-77
2024/02/28 03:13:18;;;;;;;143.05;54.05;;;;;;;1.41;100.00;101482.47;5020725;28;20074;-78
2024/02/28 03:15:46;;;;;;;124.63;49.05;;;;;;;1.52;100.00;101495.16;5018075;28;20053;-77
2024/02/28 03:18:13;;;;;;;130.65;49.85;;;;;;;1.51;100.00;101494.28;5009121;28;20054;-77
2024/02/28 03:20:39;;;;;;;126.95;49.35;;;;;;;1.55;100.00;101491.56;5009796;28;20133;-78
2024/02/28 03:23:06;;;;;;;124.13;50.60;;;;;;;1.58;100.00;101488.88;5011643;28;20136;-78
2024/02/28 03:25:33;;;;;;;124.53;48.22;;;;;;;1.67;100.00;101488.53;5011795;28;20527;-78
2024/02/28 03:28:01;;;;;;;127.40;49.72;;;;;;;1.69;100.00;101487.53;5010761;28;20132;-78
2024/02/28 03:30:27;;;;;;;134.40;51.58;;;;;;;1.77;100.00;101489.88;5007311;28;20500;-78
2024/02/28 03:32:55;;;;;;;125.25;52.83;;;;;;;1.87;100.00;101485.16;5012925;28;20138;-78
2024/02/28 03:35:22;;;;;;;137.77;52.95;;;;;;;1.86;100.00;101484.31;5014447;28;20133;-78
2024/02/28 03:37:48;;;;;;;128.45;51.95;;;;;;;1.82;100.00;101487.94;5015191;28;20099;-79
2024/02/28 03:40:15;;;;;;;137.82;51.90;;;;;;;1.80;100.00;101495.00;5058433;23;20053;-81
2024/02/28 03:42:42;;;;;;;124.95;53.22;;;;;;;1.86;100.00;101496.53;5017634;28;20077;-82
2024/02/28 03:45:11;;;;;;;127.32;52.47;;;;;;;1.88;100.00;101503.41;5012013;28;20445;-81
2024/02/28 03:47:38;;;;;;;126.65;50.58;;;;;;;1.94;100.00;101503.16;5009743;28;20081;-82
2024/02/28 03:50:07;;;;;;;124.47;49.67;;;;;;;1.95;100.00;101506.63;5006893;28;20081;-80
2024/02/28 03:52:34;;;;;;;128.23;52.53;;;;;;;2.00;100.00;101495.09;5012092;28;20054;-82
2024/02/28 03:55:00;;;;;;;131.02;52.08;;;;;;;2.05;100.00;101502.75;5003243;28;20173;-82
2024/02/28 03:57:27;;;;;;;122.60;50.42;;;;;;;2.02;100.00;101506.34;4993414;28;20058;-82
2024/02/28 03:59:56;;;;;;;119.25;50.63;;;;;;;1.97;100.00;101499.59;4998639;28;20050;-83
2024/02/28 04:02:23;;;;;;;125.93;51.03;;;;;;;1.89;100.00;101510.31;5001579;28;20154;-81
2024/02/28 04:04:50;;;;;;;125.90;52.00;;;;;;;1.91;100.00;101508.47;5001969;28;20042;-81
2024/02/28 04:07:18;;;;;;;123.88;51.75;;;;;;;2.02;100.00;101506.34;4999688;28;20046;-83
2024/02/28 04:09:45;;;;;;;120.57;49.90;;;;;;;2.02;100.00;101511.56;4999924;28;20051;-82
2024/02/28 04:12:12;;;;;;;132.05;50.78;;;;;;;2.09;100.00;101506.09;4999392;28;20050;-82
2024/02/28 04:14:39;;;;;;;125.85;49.78;;;;;;;2.17;100.00;101517.09;4999246;28;20114;-80
2024/02/28 04:17:06;;;;;;;123.05;49.25;;;;;;;2.14;100.00;101527.66;4996103;28;20508;-81
2024/02/28 04:19:39;;;;;;;118.47;48.22;;;;;;;2.13;100.00;101513.75;4998860;28;20198;-81
2024/02/28 04:22:08;;;;;;;122.45;48.72;;;;;;;2.21;100.00;101516.06;4987690;28;20103;-82
2024/02/28 04:24:38;;;;;;;122.07;48.80;;;;;;;2.21;100.00;101524.75;4978048;28;20062;-81
2024/02/28 04:27:06;;;;;;;131.80;51.78;;;;;;;2.19;100.00;101515.28;5000832;28;20042;-82
2024/02/28 04:29:37;;;;;;;123.00;50.33;;;;;;;2.17;100.00;101523.16;4999240;28;20050;-79
2024/02/28 04:32:04;;;;;;;122.32;49.50;;;;;;;2.23;100.00;101532.53;4999978;28;20194;-83
2024/02/28 04:34:30;;;;;;;130.93;49.63;;;;;;;2.33;100.00;101533.03;4997767;28;20084;-83
2024/02/28 04:36:57;;;;;;;136.60;49.45;;;;;;;2.28;100.00;101525.38;4997962;28;20086;-82
2024/02/28 04:39:23;;;;;;;139.30;48.60;;;;;;;2.28;100.00;101517.56;4997924;28;20051;-81
2024/02/28 04:41:51;;;;;;;139.48;49.30;;;;;;;2.27;100.00;101531.50;5006510;28;20439;-82
2024/02/28 04:44:19;;;;;;;135.82;49.03;;;;;;;2.26;100.00;101537.63;5010209;28;20050;-81
2024/02/28 04:46:46;;;;;;;128.88;46.47;;;;;;;2.36;100.00;101538.97;5004713;28;20058;-82
2024/02/28 04:49:13;;;;;;;140.63;48.83;;;;;;;2.23;100.00;101540.34;4999232;28;20062;-82
2024/02/28 04:51:39;;;;;;;127.10;47.80;;;;;;;2.28;100.00;101538.44;4999214;28;20074;-81
2024/02/28 04:54:06;;;;;;;137.35;48.10;;;;;;;2.24;100.00;101544.69;4995015;28;20084;-81
2024/02/28 04:56:33;;;;;;;128.07;48.13;;;;;;;2.22;100.00;101549.09;4988712;28;20131;-82
2024/02/28 04:59:01;;;;;;;136.77;47.00;;;;;;;2.18;100.00;101550.13;4990253;28;20050;-81
2024/02/28 05:01:28;;;;;;;131.07;46.95;;;;;;;2.24;100.00;101557.75;4998097;28;20042;-82
2024/02/28 05:03:57;;;;;;;124.75;45.22;;;;;;;2.26;100.00;101559.38;4997958;28;20077;-82
2024/02/28 05:06:23;;;;;;;127.85;47.33;;;;;;;2.24;100.00;101557.75;4997425;28;20508;-82
2024/02/28 05:08:50;;;;;;;128.90;46.47;;;;;;;2.21;100.00;101560.47;4989436;28;20058;-82
2024/02/28 05:11:17;;;;;;;131.00;45.42;;;;;;;2.26;100.00;101568.97;4997277;28;20046;-83
2024/02/28 05:13:43;;;;;;;111.13;42.25;;;;;;;2.13;100.00;101575.56;4996061;28;20525;-84
2024/02/28 05:16:14;;;;;;;140.02;43.60;;;;;;;1.96;100.00;101574.41;4996700;28;20082;-83
2024/02/28 05:18:41;;;;;;;135.70;41.42;;;;;;;1.71;100.00;101579.69;4997156;28;20093;-82
2024/02/28 05:21:08;;;;;;;127.82;40.15;;;;;;;1.74;100.00;101579.59;4998163;28;20105;-83
2024/02/28 05:23:35;;;;;;;145.05;41.28;;;;;;;1.65;100.00;101564.25;5000452;28;20050;-83
2024/02/28 05:26:04;;;;;;;113.65;38.85;;;;;;;1.66;100.00;101573.78;4999245;28;20505;-82
2024/02/28 05:28:30;;;;;;;125.05;40.58;;;;;;;1.54;100.00;101581.19;4999667;28;20050;-83
2024/02/28 05:30:57;;;;;;;106.45;37.78;;;;;;;1.64;100.00;101582.56;4998010;28;20193;-82
2024/02/28 05:33:25;;;;;;;109.68;39.13;;;;;;;1.56;100.00;101584.56;4989891;28;20104;-81
2024/02/28 05:35:52;;;;;;;122.53;40.33;;;;;;;1.58;100.00;101586.22;4998022;28;20487;-81
2024/02/28 05:38:19;;;;;;;122.90;41.90;;;;;;;1.66;100.00;101583.38;5001422;28;20043;-80
2024/02/28 05:40:48;;;;;;;116.47;39.33;;;;;;;1.61;100.00;101582.66;5002219;28;20074;-83
2024/02/28 05:43:17;;;;;;;116.03;39.03;;;;;;;1.61;100.00;101573.09;4989248;28;20102;-80
2024/02/28 05:45:44;;;;;;;128.85;40.00;;;;;;;1.56;100.00;101585.41;4999541;28;20051;-81
2024/02/28 05:48:11;;;;;;;123.20;40.03;;;;;;;1.56;100.00;101581.97;5002812;28;20056;-82
2024/02/28 05:50:41;;;;;;;127.47;41.63;;;;;;;1.52;100.00;101591.66;5005360;28;20047;-84
2024/02/28 05:53:12;;;;;;;138.55;40.00;;;;;;;1.63;100.00;101596.50;5009439;28;20081;-81
2024/02/28 05:55:42;;;;;;;125.38;41.45;;;;;;;1.63;100.00;101601.72;5014488;28;20054;-83
2024/02/28 06:01:07;;;;;;;137.32;43.22;;;;;;;1.73;100.00;101597.88;5003679;28;20077;-83
2024/02/28 06:03:37;;;;;;;134.70;42.63;;;;;;;1.72;100.00;101601.41;5013059;28;20054;-82
2024/02/28 06:06:08;;;;;;;136.95;42.00;;;;;;;1.77;100.00;101604.69;4995328;28;20069;-84
2024/02/28 06:08:43;;;;;;;141.38;43.03;;;;;;;1.82;100.00;101621.03;5003318;28;20051;-83
2024/02/28 06:11:11;;;;;;;137.20;44.20;;;;;;;1.84;100.00;101616.63;4986015;28;20050;-81
2024/02/28 06:13:42;;;;;;;140.02;44.63;;;;;;;1.85;100.00;101626.16;5003557;28;20049;-81
2024/02/28 06:16:14;;;;;;;156.35;45.55;;;;;;;1.79;100.00;101629.00;5004268;28;20054;-80
2024/02/28 06:18:41;;;;;;;106.93;34.25;;;;;;;1.88;100.00;101633.91;5003711;28;20064;-83
2024/02/28 06:21:10;;;;;;;148.93;45.60;;;;;;;1.94;100.00;101628.44;5007516;28;20396;-82
2024/02/28 06:23:38;;;;;;;146.48;44.95;;;;;;;1.90;100.00;101626.00;4997704;28;20074;-82
2024/02/28 06:26:14;;;;;;;150.05;44.17;;;;;;;1.92;100.00;101629.41;5014767;28;20066;-84
2024/02/28 06:28:45;;;;;;;144.13;46.08;;;;;;;1.90;100.00;101626.84;5012711;28;20081;-83
2024/02/28 06:31:16;;;;;;;151.75;43.58;;;;;;;1.89;100.00;101635.59;5001916;28;20046;-82
2024/02/28 06:33:47;;;;;;;144.50;43.95;;;;;;;1.89;100.00;101626.91;4999592;28;20066;-83
2024/02/28 06:36:20;;;;;;;147.40;46.53;;;;;;;1.86;100.00;101633.06;5000809;28;20054;-82
2024/02/28 06:38:48;;;;;;;152.43;45.70;;;;;;;1.79;100.00;101639.44;5001650;28;20550;-81
2024/02/28 06:41:21;;;;;;;159.30;48.88;;;;;;;1.87;100.00;101640.00;5000500;28;20049;-83
2024/02/28 06:43:48;;;;;;;142.63;43.80;;;;;;;1.89;100.00;101651.25;5002373;28;20085;-84
2024/02/28 06:46:17;;;;;;;151.38;46.22;;;;;;;1.89;100.00;101648.66;5000901;28;20444;-81
2024/02/28 06:48:44;;;;;;;158.80;48.10;;;;;;;1.94;100.00;101649.31;5000206;28;20062;-82
2024/02/28 06:51:12;;;;;;;171.65;48.90;;;;;;;1.96;100.00;101646.66;5000784;28;20042;-83
2024/02/28 06:53:44;;;;;;;165.52;48.00;;;;;;;1.97;100.00;101646.63;5001232;28;20060;-82
2024/02/28 06:56:11;;;;;;;154.57;47.65;;;;;;;2.06;100.00;101660.25;5002023;28;20046;-84
2024/02/28 06:58:37;;;;;;;162.48;48.83;;;;;;;2.10;100.00;101664.44;5002005;28;20085;-82
2024/02/28 07:01:05;;;;;;;169.02;49.17;;;;;;;2.15;100.00;101663.38;4988770;28;20089;-82
2024/02/28 07:03:31;;;;;;;156.07;46.78;;;;;;;2.23;100.00;101660.47;5004909;28;20122;-82
2024/02/28 07:05:58;;;;;;;156.55;46.95;;;;;;;2.26;100.00;101660.38;5000378;28;20371;-82
2024/02/28 07:08:25;;;;;;;159.18;47.63;;;;;;;2.40;100.00;101658.09;4999029;28;20115;-82
2024/02/28 07:10:54;;;;;;;148.77;47.40;;;;;;;2.49;100.00;101662.16;5000737;28;20086;-83
2024/02/28 07:13:24;;;;;;;146.20;44.85;;;;;;;2.44;100.00;101657.09;5000855;28;20150;-82
2024/02/28 07:15:50;;;;;;;140.32;43.35;;;;;;;2.49;99.83;101662.16;4999701;28;20081;-82
2024/02/28 07:18:17;;;;;;;156.93;45.58;;;;;;;2.65;99.72;101659.81;5001603;28;20082;-82
2024/02/28 07:20:44;;;;;;;144.15;45.75;;;;;;;2.62;99.28;101663.38;5001148;28;20054;-84
2024/02/28 07:23:11;;;;;;;135.25;45.30;;;;;;;2.66;99.30;101661.53;5003334;28;20050;-82
2024/02/28 07:25:37;;;;;;;122.53;41.83;;;;;;;2.58;99.27;101667.03;5001778;28;20096;-84
2024/02/28 07:28:06;;;;;;;124.43;41.90;;;;;;;2.64;99.00;101671.19;4991152;28;20054;-83
2024/02/28 07:30:33;;;;;;;116.22;41.35;;;;;;;2.72;98.59;101669.13;4995479;28;20096;-83
2024/02/28 07:32:59;;;;;;;119.72;40.28;;;;;;;2.81;98.33;101673.16;4999628;28;20097;-83
2024/02/28 07:35:26;;;;;;;117.68;41.70;;;;;;;2.73;97.85;101676.06;5000288;28;20086;-83
2024/02/28 07:37:52;;;;;;;108.30;40.00;;;;;;;2.82;97.52;101667.88;5000361;28;20050;-83
2024/02/28 07:40:19;;;;;;;119.72;42.25;;;;;;;2.90;96.72;101672.78;5000348;28;20043;-83
2024/02/28 07:42:46;;;;;;;113.82;43.20;;;;;;;2.94;97.72;101669.16;5000689;28;20571;-83
2024/02/28 07:45:14;;;;;;;112.90;41.10;;;;;;;3.17;95.96;101678.69;4994618;28;20133;-84
2024/02/28 07:47:41;;;;;;;106.53;41.70;;;;;;;3.29;95.94;101678.22;4996098;28;20504;-84
2024/02/28 07:50:08;;;;;;;108.78;41.08;;;;;;;3.30;95.30;101674.69;4991136;28;20054;-84
2024/02/28 07:52:37;;;;;;;101.93;40.13;;;;;;;3.41;95.15;101669.88;4999097;28;20065;-85
2024/02/28 07:55:04;;;;;;;101.40;41.13;;;;;;;3.50;94.75;101674.72;4997797;28;20054;-84
2024/02/28 07:57:33;;;;;;;97.20;39.47;;;;;;;3.54;93.38;101676.31;4998488;28;20049;-83
2024/02/28 07:59:59;;;;;;;100.30;40.65;;;;;;;3.51;94.04;101680.81;4999562;28;20089;-83
2024/02/28 08:02:27;;;;;;;93.32;38.85;;;;;;;3.66;93.10;101684.56;4999461;28;20057;-84
2024/02/28 08:04:54;;;;;;;91.70;39.47;;;;;;;3.75;92.90;101674.56;4984300;28;20081;-84
2024/02/28 08:07:21;;;;;;;98.38;40.00;;;;;;;3.98;91.64;101676.22;4994929;28;20383;-84
2024/02/28 08:09:47;;;;;;;89.95;39.25;;;;;;;4.12;91.09;101674.75;4998598;28;20133;-83
2024/02/28 08:12:14;;;;;;;90.90;39.00;;;;;;;4.15;90.91;101677.22;4999245;28;20046;-84
2024/02/28 08:14:41;;;;;;;88.57;39.85;;;;;;;4.10;89.56;101680.03;4991281;28;20055;-83
2024/02/28 08:17:07;;;;;;;86.45;38.88;;;;;;;4.00;90.11;101682.22;5001312;28;20046;-82
2024/02/28 08:19:35;;;;;;;87.55;39.15;;;;;;;4.11;91.02;101686.13;5001729;28;20054;-81
2024/02/28 08:22:02;;;;;;;84.30;39.25;;;;;;;4.25;90.54;101689.88;4999490;28;20046;-80
2024/02/28 08:24:29;;;;;;;84.80;39.55;;;;;;;4.24;90.46;101695.16;4993518;28;20549;-80
2024/02/28 08:26:55;;;;;;;87.13;39.13;;;;;;;4.33;89.38;101697.41;5001684;28;20118;-82
2024/02/28 08:29:22;;;;;;;86.10;40.38;;;;;;;4.60;89.57;101707.53;5002951;28;20480;-82
2024/02/28 08:31:48;;;;;;;91.53;42.20;;;;;;;5.08;88.06;101707.06;5001113;28;20054;-83
2024/02/28 08:34:15;;;;;;;86.60;39.85;;;;;;;5.34;85.92;101700.56;5001411;28;20101;-80
2024/02/28 08:36:43;;;;;;;83.30;40.08;;;;;;;5.03;86.50;101709.06;5000741;28;20060;-81
2024/02/28 08:39:11;;;;;;;86.93;40.17;;;;;;;5.19;86.16;101703.94;4997323;28;20575;-79
2024/02/28 08:41:37;;;;;;;82.88;40.28;;;;;;;5.05;86.50;101702.81;4996449;28;20077;-82
2024/02/28 08:44:04;;;;;;;89.80;41.03;;;;;;;5.18;85.57;101707.47;4992209;28;20081;-81
2024/02/28 08:46:31;;;;;;;88.68;43.35;;;;;;;4.93;86.49;101708.63;4998982;28;20453;-81
2024/02/28 08:48:57;;;;;;;88.22;42.15;;;;;;;4.91;86.24;101713.13;4998282;28;20157;-81
2024/02/28 08:51:24;;;;;;;86.55;41.08;;;;;;;4.91;85.94;101715.75;4997634;28;20134;-81
2024/02/28 08:53:53;;;;;;;93.50;42.17;;;;;;;4.82;87.18;101708.25;4994386;28;20516;-81
2024/02/28 08:56:20;;;;;;;88.20;42.58;;;;;;;4.96;86.21;101705.03;5000774;28;20129;-81
2024/02/28 08:58:46;;;;;;;91.15;42.90;;;;;;;5.27;85.81;101714.94;5002105;28;20070;-80
2024/02/28 09:01:15;;;;;;;94.72;42.63;;;;;;;5.37;86.02;101713.56;5002356;28;20074;-80
2024/02/28 09:03:42;;;;;;;90.40;42.63;;;;;;;5.56;85.47;101703.00;5003225;28;20061;-80
2024/02/28 09:06:09;;;;;;;94.53;46.15;;;;;;;5.98;83.07;101704.44;5011293;28;20050;-80
2024/02/28 09:08:35;;;;;;;97.55;49.33;;;;;;;5.99;82.96;101708.78;5007903;28;20050;-82
2024/02/28 09:11:05;;;;;;;91.50;47.35;;;;;;;6.09;81.60;101712.63;5002841;28;20121;-82
2024/02/28 09:13:31;;;;;;;93.85;44.15;;;;;;;6.04;81.24;101714.66;5002895;28;20050;-81
2024/02/28 09:15:58;;;;;;;92.40;43.25;;;;;;;5.90;81.67;101710.06;5005066;28;20054;-82
2024/02/28 09:18:24;;;;;;;92.22;44.75;;;;;;;5.99;82.28;101712.25;5007033;28;20109;-80
2024/02/28 09:20:51;;;;;;;85.82;43.58;;;;;;;6.08;81.49;101705.69;5002800;28;20074;-80
2024/02/28 09:23:18;;;;;;;91.40;46.13;;;;;;;5.90;80.95;101712.69;5002478;28;20567;-81
2024/02/28 09:25:44;;;;;;;95.03;44.53;;;;;;;5.89;82.42;101716.22;5003737;28;20054;-83
2024/02/28 09:28:15;;;;;;;94.20;45.88;;;;;;;5.88;81.62;101714.53;5003836;28;20137;-81
2024/02/28 09:30:41;;;;;;;83.55;42.47;;;;;;;5.72;82.58;101724.13;5003961;28;20073;-82
2024/02/28 09:33:08;;;;;;;97.70;45.63;;;;;;;6.01;81.02;101723.53;5002608;28;20145;-81
2024/02/28 09:35:36;;;;;;;92.30;46.65;;;;;;;5.94;81.45;101714.28;5002995;28;20542;-81
2024/02/28 09:38:02;;;;;;;98.85;49.03;;;;;;;6.08;82.33;101716.19;5002888;28;20053;-82
2024/02/28 09:40:29;;;;;;;91.20;45.22;;;;;;;6.31;80.73;101718.47;5024600;23;20080;-76
2024/02/28 09:43:02;;;;;;;85.05;42.97;;;;;;;6.52;80.17;101721.75;5011875;28;20088;-78
2024/02/28 09:45:31;;;;;;;89.60;41.33;;;;;;;6.55;80.10;101721.59;5011871;28;20072;-77
2024/02/28 09:47:58;;;;;;;86.82;44.42;;;;;;;6.32;81.64;101719.31;5009214;28;20179;-78
2024/02/28 09:50:26;;;;;;;84.63;42.15;;;;;;;6.53;80.55;101720.81;5009930;28;20068;-77
2024/02/28 09:52:53;;;;;;;79.60;41.22;;;;;;;6.30;79.72;101721.19;5006383;28;20141;-78
2024/02/28 09:55:20;;;;;;;77.55;41.63;;;;;;;6.40;80.00;101719.78;5010124;28;20132;-77
2024/02/28 09:57:49;;;;;;;75.05;40.03;;;;;;;6.41;80.07;101715.38;5008556;28;20133;-77
2024/02/28 10:00:19;;;;;;;76.03;38.97;;;;;;;6.38;80.16;101716.34;5002570;28;20052;-78
2024/02/28 10:02:48;;;;;;;73.60;38.80;;;;;;;6.43;79.86;101708.22;5003606;28;20423;-77
2024/02/28 10:05:16;;;;;;;71.82;37.13;;;;;;;6.55;77.75;101703.19;5007780;28;20528;-77
2024/02/28 10:07:43;;;;;;;77.40;38.33;;;;;;;6.58;78.67;101708.28;4999789;28;20057;-77
2024/02/28 10:10:09;;;;;;;71.88;37.88;;;;;;;6.77;78.20;101696.75;5007648;28;20137;-77
2024/02/28 10:12:36;;;;;;;75.10;40.22;;;;;;;6.84;78.90;101692.88;4993257;28;20082;-78
2024/02/28 10:15:03;;;;;;;74.55;39.88;;;;;;;7.07;77.81;101687.19;5006976;28;20137;-78
2024/02/28 10:17:29;;;;;;;74.75;39.42;;;;;;;6.99;77.53;101694.66;5001877;28;20401;-77
2024/02/28 10:19:59;;;;;;;75.18;40.15;;;;;;;7.19;76.53;101690.94;4999029;28;20134;-78
2024/02/28 10:22:26;;;;;;;74.70;40.95;;;;;;;7.30;75.80;101699.06;5000995;28;20050;-78
2024/02/28 10:24:58;;;;;;;76.78;42.80;;;;;;;7.28;75.55;101692.19;5008609;28;20049;-78
2024/02/28 10:27:24;;;;;;;74.60;41.65;;;;;;;7.17;75.88;101698.03;5002658;28;20104;-78
2024/02/28 10:29:51;;;;;;;80.72;41.88;;;;;;;6.97;77.14;101691.28;5007806;28;20465;-79
2024/02/28 10:32:18;;;;;;;74.38;40.47;;;;;;;7.04;74.97;101694.41;5012654;28;20104;-78
2024/02/28 10:34:45;;;;;;;80.28;41.10;;;;;;;6.98;75.29;101700.84;5009583;28;20058;-78
2024/02/28 10:37:14;;;;;;;82.05;43.35;;;;;;;7.09;75.84;101693.19;5002483;28;20524;-78
2024/02/28 10:39:42;;;;;;;72.00;40.90;;;;;;;6.77;76.58;101696.75;4994377;28;20046;-78
2024/02/28 10:42:12;;;;;;;76.05;41.20;;;;;;;7.02;77.09;101697.13;5006330;28;20059;-77
2024/02/28 10:44:42;;;;;;;78.57;41.42;;;;;;;7.04;76.72;101692.63;5008317;28;20046;-78
2024/02/28 10:47:09;;;;;;;76.53;41.05;;;;;;;6.76;76.26;101705.59;5004128;28;20140;-78
2024/02/28 10:49:35;;;;;;;77.65;40.63;;;;;;;6.67;78.06;101699.06;5007992;28;20324;-77
2024/02/28 10:52:07;;;;;;;74.00;39.25;;;;;;;7.30;76.34;101700.84;4998760;28;20201;-77
2024/02/28 10:54:37;;;;;;;74.63;39.28;;;;;;;7.27;74.95;101709.75;5003412;28;20074;-78
2024/02/28 10:57:06;;;;;;;74.38;40.72;;;;;;;7.01;76.13;101703.34;5002154;28;20090;-78
2024/02/28 10:59:35;;;;;;;74.82;39.70;;;;;;;7.60;75.88;101708.78;5006847;28;20100;-78
2024/02/28 11:02:04;;;;;;;66.72;38.88;;;;;;;7.66;74.86;101703.16;5003367;28;20043;-78
2024/02/28 11:04:31;;;;;;;73.85;40.05;;;;;;;7.46;73.80;101714.84;5001293;28;20479;-78
2024/02/28 11:06:58;;;;;;;68.80;39.70;;;;;;;7.14;76.34;101708.75;5003785;28;20144;-78
2024/02/28 11:09:26;;;;;;;68.57;38.88;;;;;;;7.64;74.66;101712.09;5000899;28;20129;-78
2024/02/28 11:11:55;;;;;;;67.28;39.30;;;;;;;7.79;75.17;101706.78;5004260;28;20053;-77